Time;durP1;ratioP1;P1;durP2;ratioP2;P2;SDS_P1;SDS_P2;PMS_P1;PMS_P2;Temp;Humidity;BMP_temperature;BMP_pressure;BME280_temperature;BME280_humidity;BME280_pressure;Samples;Min_cycle;Max_cycle;Signal;HPM_P1;HPM_P2
2022/07/23 00:01:34;;;;;;;10.60;9.65;;;15.10;99.90;;;;;;5019310;28;20402;-83
2022/07/23 00:04:00;;;;;;;11.27;10.17;;;15.00;99.90;;;;;;5019795;28;20373;-84
2022/07/23 00:06:26;;;;;;;11.82;10.70;;;15.00;99.90;;;;;;5001384;28;20454;-83
2022/07/23 00:08:52;;;;;;;11.85;10.65;;;15.00;99.90;;;;;;5020350;28;20366;-83
2022/07/23 00:11:18;;;;;;;11.27;10.13;;;15.00;99.90;;;;;;5012471;28;20381;-83
2022/07/23 00:13:44;;;;;;;11.65;10.43;;;15.00;99.90;;;;;;5012402;28;20448;-84
2022/07/23 00:16:09;;;;;;;11.40;10.30;;;15.00;99.90;;;;;;5020504;28;20861;-83
2022/07/23 00:18:35;;;;;;;11.70;10.50;;;14.90;99.90;;;;;;4995369;28;20403;-83
2022/07/23 00:21:01;;;;;;;11.60;10.43;;;14.90;99.90;;;;;;5013767;28;20418;-83
2022/07/23 00:23:28;;;;;;;13.03;10.97;;;14.90;99.90;;;;;;5023431;28;20440;-83
2022/07/23 00:25:54;;;;;;;12.38;11.05;;;14.90;99.90;;;;;;4997007;28;20784;-83
2022/07/23 00:28:20;;;;;;;12.27;11.07;;;14.90;99.90;;;;;;4993790;28;20382;-84
2022/07/23 00:30:45;;;;;;;11.03;10.03;;;14.90;99.90;;;;;;5000808;28;20429;-84
2022/07/23 00:33:11;;;;;;;12.13;10.90;;;14.90;99.90;;;;;;5001046;28;20400;-84
2022/07/23 00:35:40;;;;;;;12.10;10.60;;;14.80;99.90;;;;;;5011624;28;20431;-83
2022/07/23 00:38:08;;;;;;;14.75;10.95;;;14.80;99.90;;;;;;4998213;28;20743;-83
2022/07/23 00:40:34;;;;;;;11.85;10.75;;;14.70;99.90;;;;;;5003147;28;20431;-83
2022/07/23 00:43:00;;;;;;;12.57;11.27;;;14.60;99.90;;;;;;5001085;28;20414;-84
2022/07/23 00:45:26;;;;;;;12.20;11.10;;;14.60;99.90;;;;;;5019800;28;20373;-84
2022/07/23 00:47:52;;;;;;;12.07;10.88;;;14.50;99.90;;;;;;5019751;28;20399;-83
2022/07/23 00:50:17;;;;;;;13.02;11.27;;;14.50;99.90;;;;;;5000578;28;20478;-83
2022/07/23 00:52:44;;;;;;;11.63;10.53;;;14.40;99.90;;;;;;5003805;28;20382;-85
2022/07/23 00:55:11;;;;;;;12.07;10.95;;;14.40;99.90;;;;;;5002343;28;20447;-82
2022/07/23 00:57:38;;;;;;;11.52;10.43;;;14.50;99.90;;;;;;5002607;28;20458;-83
2022/07/23 01:00:07;;;;;;;12.15;10.95;;;14.50;99.90;;;;;;5019538;28;20387;-83
2022/07/23 01:02:32;;;;;;;11.20;10.20;;;14.50;99.90;;;;;;5000234;28;20460;-83
2022/07/23 01:04:58;;;;;;;12.00;10.80;;;14.50;99.90;;;;;;5019916;28;20373;-84
2022/07/23 01:07:24;;;;;;;11.60;10.50;;;14.50;99.90;;;;;;5001307;28;20450;-84
2022/07/23 01:09:51;;;;;;;12.45;11.25;;;14.40;99.90;;;;;;5000715;28;20385;-84
2022/07/23 01:12:17;;;;;;;11.57;10.50;;;14.40;99.90;;;;;;4999975;28;20466;-83
2022/07/23 01:14:43;;;;;;;12.05;10.80;;;14.30;99.90;;;;;;5001529;28;20401;-82
2022/07/23 01:17:09;;;;;;;12.05;10.80;;;14.30;99.90;;;;;;5001782;28;20738;-83
2022/07/23 01:19:35;;;;;;;11.35;10.30;;;14.30;99.90;;;;;;4999903;28;20395;-83
2022/07/23 01:22:03;;;;;;;12.13;10.90;;;14.30;99.90;;;;;;5002742;28;20450;-84
2022/07/23 01:24:29;;;;;;;11.88;10.77;;;14.30;99.90;;;;;;5000821;28;20377;-83
2022/07/23 01:26:55;;;;;;;12.75;11.55;;;14.20;99.90;;;;;;5002217;28;20959;-84
2022/07/23 01:29:21;;;;;;;12.33;11.07;;;14.30;99.90;;;;;;4994530;28;20387;-84
2022/07/23 01:31:47;;;;;;;11.85;10.68;;;14.20;99.90;;;;;;5009925;28;20761;-83
2022/07/23 01:34:13;;;;;;;11.82;10.63;;;14.20;99.90;;;;;;4992542;28;20387;-83
2022/07/23 01:36:39;;;;;;;12.82;11.43;;;14.30;99.90;;;;;;5009537;28;20435;-83
2022/07/23 01:39:06;;;;;;;12.43;11.13;;;14.40;99.90;;;;;;5009738;28;20411;-83
2022/07/23 01:41:32;;;;;;;12.48;10.93;;;14.40;99.90;;;;;;5009533;28;20399;-82
2022/07/23 01:43:57;;;;;;;12.25;11.15;;;14.40;99.90;;;;;;5009586;28;20726;-83
2022/07/23 01:46:23;;;;;;;11.27;10.18;;;14.40;99.90;;;;;;4991517;28;20399;-83
2022/07/23 01:48:49;;;;;;;13.43;12.13;;;14.40;99.90;;;;;;5009570;28;20383;-83
2022/07/23 01:51:15;;;;;;;12.23;10.75;;;14.40;99.90;;;;;;5009425;28;20718;-83
2022/07/23 01:53:41;;;;;;;12.63;11.43;;;14.40;99.90;;;;;;5009718;28;20379;-83
2022/07/23 01:56:07;;;;;;;13.57;12.15;;;14.60;99.90;;;;;;4991990;28;20411;-81
2022/07/23 01:58:32;;;;;;;13.52;12.13;;;14.60;99.90;;;;;;5009203;28;20434;-82
2022/07/23 02:00:58;;;;;;;14.00;12.40;;;14.60;99.90;;;;;;5009152;28;20379;-81
2022/07/23 02:03:24;;;;;;;13.05;11.85;;;14.70;99.90;;;;;;5009541;28;20956;-82
2022/07/23 02:05:50;;;;;;;13.35;11.95;;;14.80;99.90;;;;;;4991662;28;20446;-83
2022/07/23 02:08:16;;;;;;;12.57;11.25;;;14.90;99.90;;;;;;4991760;28;20493;-83
2022/07/23 02:10:42;;;;;;;12.07;10.98;;;15.00;99.90;;;;;;4992233;28;20885;-83
2022/07/23 02:13:08;;;;;;;12.45;11.35;;;14.90;99.90;;;;;;5009152;28;20470;-82
2022/07/23 02:15:34;;;;;;;11.50;10.35;;;14.90;99.90;;;;;;5009223;28;20466;-82
2022/07/23 02:18:00;;;;;;;12.25;10.93;;;14.90;99.90;;;;;;5009146;28;20383;-83
2022/07/23 02:20:25;;;;;;;10.83;9.67;;;14.90;99.90;;;;;;5008889;28;20450;-84
2022/07/23 02:22:51;;;;;;;12.55;9.70;;;14.90;99.90;;;;;;4991172;28;20419;-84
2022/07/23 02:25:17;;;;;;;11.52;10.25;;;14.90;99.90;;;;;;4991419;28;20383;-83
2022/07/23 02:27:43;;;;;;;10.75;9.70;;;15.00;99.90;;;;;;4991371;28;20415;-84
2022/07/23 02:30:09;;;;;;;10.47;9.37;;;15.10;99.90;;;;;;5009370;28;20464;-83
2022/07/23 02:32:35;;;;;;;12.45;9.73;;;15.10;99.90;;;;;;5008345;28;21292;-83
2022/07/23 02:35:02;;;;;;;9.95;8.57;;;15.10;99.90;;;;;;4991539;28;20907;-84
2022/07/23 02:37:27;;;;;;;15.07;10.02;;;15.10;99.90;;;;;;5008407;28;20482;-84
2022/07/23 02:39:53;;;;;;;9.35;8.48;;;15.10;99.90;;;;;;4994788;28;20421;-82
2022/07/23 02:42:19;;;;;;;9.33;8.43;;;15.20;99.90;;;;;;5011689;28;20403;-84
2022/07/23 02:44:45;;;;;;;10.98;8.80;;;15.20;99.90;;;;;;5012901;28;20379;-83
2022/07/23 02:47:10;;;;;;;12.80;8.82;;;15.20;99.90;;;;;;5012997;28;20978;-84
2022/07/23 02:49:36;;;;;;;10.07;9.00;;;15.10;99.90;;;;;;5013025;28;20394;-84
2022/07/23 02:52:02;;;;;;;11.10;8.43;;;15.10;99.90;;;;;;4994859;28;20375;-84
2022/07/23 02:54:27;;;;;;;9.30;8.32;;;15.10;99.90;;;;;;5012703;28;20458;-84
2022/07/23 02:56:53;;;;;;;9.47;8.37;;;15.20;99.90;;;;;;5012649;28;20477;-83
2022/07/23 02:59:19;;;;;;;8.52;7.50;;;15.20;99.90;;;;;;5012428;28;20865;-84
2022/07/23 03:01:45;;;;;;;8.55;7.65;;;15.20;99.90;;;;;;5012247;28;20931;-84
2022/07/23 03:04:11;;;;;;;8.45;6.75;;;15.30;99.90;;;;;;4994950;28;21008;-84
2022/07/23 03:06:37;;;;;;;8.73;7.30;;;15.30;99.90;;;;;;4994415;28;20430;-84
2022/07/23 03:09:03;;;;;;;8.90;7.70;;;15.30;99.90;;;;;;5014756;28;21020;-84
2022/07/23 03:11:29;;;;;;;8.10;7.30;;;15.40;99.90;;;;;;5031688;28;20735;-84
2022/07/23 03:13:55;;;;;;;8.43;7.40;;;15.40;99.90;;;;;;5014410;28;20787;-83
2022/07/23 03:16:22;;;;;;;8.23;7.43;;;15.30;99.90;;;;;;5022941;28;20378;-83
2022/07/23 03:18:47;;;;;;;8.88;7.60;;;15.30;99.90;;;;;;5012404;28;20385;-82
2022/07/23 03:21:13;;;;;;;7.57;6.78;;;15.30;99.90;;;;;;4993943;28;20517;-84
2022/07/23 03:23:39;;;;;;;7.73;7.07;;;15.30;99.90;;;;;;4994659;28;20430;-82
2022/07/23 03:26:04;;;;;;;8.13;7.32;;;15.40;99.90;;;;;;4994455;28;20383;-83
2022/07/23 03:28:30;;;;;;;8.45;7.43;;;15.50;99.90;;;;;;4994537;28;20785;-83
2022/07/23 03:30:56;;;;;;;8.13;7.13;;;15.50;99.90;;;;;;4994673;28;20884;-82
2022/07/23 03:33:22;;;;;;;7.97;7.18;;;15.50;99.90;;;;;;5012628;28;20375;-83
2022/07/23 03:35:49;;;;;;;7.43;6.72;;;15.50;99.90;;;;;;4998641;28;20803;-83
2022/07/23 03:38:15;;;;;;;7.90;7.10;;;15.50;99.90;;;;;;5013844;28;20740;-83
2022/07/23 03:40:41;;;;;;;7.27;6.53;;;15.50;99.90;;;;;;5014038;28;20377;-83
2022/07/23 03:43:07;;;;;;;8.77;7.90;;;15.70;99.90;;;;;;5032143;28;20484;-83
2022/07/23 03:45:33;;;;;;;7.73;6.93;;;15.60;99.90;;;;;;5014780;28;20796;-83
2022/07/23 03:47:59;;;;;;;6.97;6.22;;;15.70;99.90;;;;;;5032164;28;20394;-83
2022/07/23 03:50:25;;;;;;;7.22;6.15;;;15.80;99.90;;;;;;5032135;28;20373;-84
2022/07/23 03:52:51;;;;;;;9.70;6.93;;;15.80;99.90;;;;;;5031630;28;20380;-85
2022/07/23 03:55:17;;;;;;;10.20;7.15;;;;;;;;;;5013680;28;20377;-84
2022/07/23 03:57:43;;;;;;;11.20;8.10;;;;;;;;;;5013666;28;20405;-83
2022/07/23 04:00:10;;;;;;;10.43;7.22;;;15.90;99.90;;;;;;5031298;28;20419;-81
2022/07/23 04:02:37;;;;;;;11.43;7.90;;;;;;;;;;5030706;28;20544;-81
2022/07/23 04:05:03;;;;;;;11.13;7.90;;;16.00;99.90;;;;;;5014070;28;20389;-83
2022/07/23 04:07:29;;;;;;;13.70;8.43;;;;;;;;;;5031472;28;20908;-82
2022/07/23 04:09:55;;;;;;;13.20;7.88;;;;;;;;;;5031984;28;20357;-81
2022/07/23 04:12:21;;;;;;;12.95;7.70;;;15.60;99.90;;;;;;5031869;28;20378;-82
2022/07/23 04:14:47;;;;;;;10.40;7.80;;;;;;;;;;5014449;28;20465;-84
2022/07/23 04:17:13;;;;;;;11.35;7.57;;;;;;;;;;5031736;28;20969;-83
2022/07/23 04:19:43;;;;;;;10.93;8.10;;;15.30;99.90;;;;;;5013235;28;20441;-85
2022/07/23 04:22:10;;;;;;;8.83;7.73;;;15.20;99.90;;;;;;5012664;28;20970;-84
2022/07/23 04:24:36;;;;;;;10.80;8.38;;;15.20;99.90;;;;;;5031320;28;20382;-83
2022/07/23 04:27:02;;;;;;;11.73;9.05;;;15.30;99.90;;;;;;5030924;28;20384;-84
2022/07/23 04:29:27;;;;;;;10.23;8.60;;;15.30;99.90;;;;;;5032415;28;20376;-81
2022/07/23 04:31:53;;;;;;;9.35;8.35;;;;;;;;;;5031982;28;20945;-82
2022/07/23 04:34:19;;;;;;;13.67;8.67;;;;;;;;;;5014090;28;20409;-82
2022/07/23 04:36:45;;;;;;;12.77;8.75;;;;;;;;;;5030958;28;20400;-82
2022/07/23 04:39:11;;;;;;;11.33;8.23;;;;;;;;;;5030576;28;20392;-81
2022/07/23 04:41:37;;;;;;;9.63;8.30;;;15.70;99.90;;;;;;5030421;28;20488;-83
2022/07/23 04:44:03;;;;;;;11.52;8.73;;;15.70;99.90;;;;;;5031353;28;20411;-82
2022/07/23 04:46:29;;;;;;;10.98;8.25;;;15.80;99.90;;;;;;5030812;28;20469;-82
2022/07/23 04:48:55;;;;;;;8.85;7.55;;;15.70;99.90;;;;;;5012505;28;20444;-83
2022/07/23 04:51:20;;;;;;;11.30;7.70;;;15.80;99.90;;;;;;5029920;28;20894;-82
2022/07/23 04:53:46;;;;;;;8.63;7.80;;;15.80;99.90;;;;;;5030015;28;20429;-82
2022/07/23 04:56:12;;;;;;;9.77;8.52;;;15.80;99.90;;;;;;5030034;28;20389;-82
2022/07/23 04:58:38;;;;;;;8.90;7.73;;;15.80;99.90;;;;;;5012392;28;20400;-82
2022/07/23 05:01:03;;;;;;;8.97;7.30;;;15.90;99.90;;;;;;5032800;28;20824;-80
2022/07/23 05:03:30;;;;;;;9.25;7.88;;;16.00;99.90;;;;;;5034609;28;20409;-82
2022/07/23 05:05:55;;;;;;;8.20;7.38;;;16.00;99.90;;;;;;5014655;28;20456;-80
2022/07/23 05:08:21;;;;;;;8.35;7.38;;;16.00;99.90;;;;;;5012819;28;21102;-81
2022/07/23 05:10:47;;;;;;;10.20;8.30;;;16.00;99.90;;;;;;5029987;28;20790;-83
2022/07/23 05:13:15;;;;;;;9.45;7.28;;;;;;;;;;5030295;28;20369;-82
2022/07/23 05:15:41;;;;;;;9.20;7.90;;;15.90;99.90;;;;;;5030490;28;20380;-82
2022/07/23 05:18:06;;;;;;;12.35;7.90;;;16.00;99.90;;;;;;5013517;28;20374;-83
2022/07/23 05:20:32;;;;;;;9.00;7.57;;;16.10;99.90;;;;;;5032389;28;20382;-83
2022/07/23 05:22:58;;;;;;;7.63;6.30;;;16.20;99.90;;;;;;5034815;28;20926;-82
2022/07/23 05:25:23;;;;;;;7.63;6.83;;;16.20;99.90;;;;;;5017558;28;20432;-84
2022/07/23 05:27:49;;;;;;;9.13;7.15;;;16.30;99.90;;;;;;5036467;28;21027;-83
2022/07/23 05:30:15;;;;;;;10.63;7.13;;;16.40;99.90;;;;;;5033918;28;20381;-82
2022/07/23 05:32:41;;;;;;;10.43;7.03;;;16.50;99.90;;;;;;5030328;28;20405;-82
2022/07/23 05:35:07;;;;;;;8.35;6.80;;;;;;;;;;5029744;28;20468;-84
2022/07/23 05:37:33;;;;;;;8.15;6.88;;;16.40;99.90;;;;;;5011729;28;20388;-84
2022/07/23 05:40:05;;;;;;;11.23;7.82;;;16.40;99.90;;;;;;5030718;28;20365;-83
2022/07/23 05:42:31;;;;;;;9.73;8.13;;;16.30;99.90;;;;;;5013319;28;20412;-84
2022/07/23 05:44:57;;;;;;;9.73;8.10;;;16.30;99.90;;;;;;5014431;28;20942;-83
2022/07/23 05:47:23;;;;;;;8.48;7.53;;;;;;;;;;5031366;28;20378;-82
2022/07/23 05:49:49;;;;;;;11.43;8.05;;;16.40;99.90;;;;;;5012549;28;20465;-82
2022/07/23 05:52:14;;;;;;;8.17;7.33;;;16.20;99.90;;;;;;5029669;28;20442;-82
2022/07/23 05:54:41;;;;;;;9.65;7.43;;;;;;;;;;5011687;28;20524;-81
2022/07/23 05:57:07;;;;;;;11.10;8.27;;;16.30;99.90;;;;;;5029972;28;20382;-82
2022/07/23 05:59:33;;;;;;;8.82;7.93;;;16.30;99.90;;;;;;5029090;28;21019;-82
2022/07/23 06:01:58;;;;;;;9.02;8.07;;;16.20;99.90;;;;;;5029099;28;20412;-80
2022/07/23 06:04:24;;;;;;;10.73;8.30;;;16.20;99.90;;;;;;5030152;28;20378;-82
2022/07/23 06:06:49;;;;;;;10.57;8.15;;;16.00;99.90;;;;;;5021135;28;20896;-83
2022/07/23 06:09:15;;;;;;;12.10;9.20;;;16.00;99.90;;;;;;5024029;28;20389;-82
2022/07/23 06:11:41;;;;;;;10.23;8.40;;;16.10;99.90;;;;;;5007146;28;20402;-82
2022/07/23 06:14:06;;;;;;;10.50;8.33;;;16.20;99.90;;;;;;5018085;28;20372;-83
2022/07/23 06:16:35;;;;;;;10.70;9.10;;;16.20;99.90;;;;;;5009631;28;20398;-81
2022/07/23 06:19:00;;;;;;;10.98;8.90;;;16.30;99.90;;;;;;5008886;28;20875;-83
2022/07/23 06:21:26;;;;;;;10.15;8.85;;;16.40;99.90;;;;;;5030337;28;20380;-82
2022/07/23 06:23:52;;;;;;;10.40;8.97;;;16.50;99.90;;;;;;5029958;28;20746;-82
2022/07/23 06:26:17;;;;;;;10.13;8.05;;;16.60;99.90;;;;;;5012034;28;20378;-81
2022/07/23 06:28:43;;;;;;;9.50;7.43;;;16.70;99.90;;;;;;5024418;28;20748;-80
2022/07/23 06:31:08;;;;;;;10.55;7.82;;;16.90;99.90;;;;;;5011048;28;20940;-82
2022/07/23 06:33:34;;;;;;;9.57;7.63;;;17.00;99.90;;;;;;5014387;28;20461;-82
2022/07/23 06:36:00;;;;;;;8.70;7.63;;;17.10;99.90;;;;;;5028712;28;20380;-81
2022/07/23 06:38:25;;;;;;;10.03;7.80;;;17.20;99.90;;;;;;5010927;28;21027;-82
2022/07/23 06:40:52;;;;;;;12.02;7.75;;;17.20;99.90;;;;;;5016578;28;20389;-80
2022/07/23 06:43:17;;;;;;;8.55;7.65;;;17.30;99.90;;;;;;5000998;28;20407;-81
2022/07/23 06:45:43;;;;;;;10.15;7.50;;;17.30;99.90;;;;;;5026609;28;20933;-82
2022/07/23 06:48:09;;;;;;;8.63;7.20;;;17.40;99.90;;;;;;5028565;28;20373;-83
2022/07/23 06:50:34;;;;;;;10.33;7.97;;;17.40;99.90;;;;;;5028826;28;20388;-83
2022/07/23 06:53:00;;;;;;;11.00;7.37;;;17.30;99.90;;;;;;5029187;28;20438;-81
2022/07/23 06:55:26;;;;;;;10.70;8.65;;;17.30;99.90;;;;;;5029720;28;20404;-81
2022/07/23 06:57:52;;;;;;;11.07;8.68;;;17.20;99.90;;;;;;5031982;28;20389;-82
2022/07/23 07:00:17;;;;;;;10.10;7.93;;;17.20;99.90;;;;;;5032486;28;20469;-82
2022/07/23 07:02:43;;;;;;;8.68;7.50;;;17.30;99.90;;;;;;5030992;28;20875;-83
2022/07/23 07:05:10;;;;;;;9.00;8.10;;;17.30;99.90;;;;;;5021256;28;20391;-83
2022/07/23 07:07:36;;;;;;;8.90;8.00;;;17.30;99.90;;;;;;4994911;28;20402;-84
2022/07/23 07:10:03;;;;;;;9.18;7.80;;;17.30;99.90;;;;;;5013188;28;20391;-84
2022/07/23 07:12:29;;;;;;;8.77;7.47;;;17.40;99.90;;;;;;5013710;28;20458;-84
2022/07/23 07:14:54;;;;;;;11.20;7.80;;;17.50;99.90;;;;;;5024342;28;20755;-85
2022/07/23 07:17:20;;;;;;;8.73;7.50;;;17.70;99.90;;;;;;4994942;28;20453;-84
2022/07/23 07:19:46;;;;;;;8.50;7.32;;;17.80;99.90;;;;;;4993577;28;20387;-84
2022/07/23 07:22:11;;;;;;;10.23;7.33;;;17.90;99.90;;;;;;5012083;28;20502;-86
2022/07/23 07:24:37;;;;;;;8.13;6.18;;;17.90;99.90;;;;;;4995164;28;20495;-85
2022/07/23 07:27:03;;;;;;;7.30;6.10;;;18.00;99.90;;;;;;5014192;28;20395;-85
2022/07/23 07:29:28;;;;;;;8.32;6.50;;;18.10;99.90;;;;;;4999222;28;20391;-85
2022/07/23 07:31:55;;;;;;;8.97;6.87;;;18.10;99.90;;;;;;5004205;28;20374;-85
2022/07/23 07:34:41;;;;;;;8.35;6.95;;;18.00;99.90;;;;;;5021495;28;20385;-85
2022/07/23 07:37:09;;;;;;;11.27;6.45;;;18.00;99.90;;;;;;4989707;28;20389;-84
2022/07/23 07:39:35;;;;;;;8.02;6.32;;;18.10;99.90;;;;;;5035539;28;20405;-85
2022/07/23 07:42:01;;;;;;;11.33;6.77;;;18.50;99.90;;;;;;5034515;28;20420;-84
2022/07/23 07:44:26;;;;;;;7.97;6.28;;;18.70;99.90;;;;;;5034568;28;20491;-83
2022/07/23 07:46:52;;;;;;;10.37;6.20;;;19.00;99.90;;;;;;5006405;28;20470;-84
2022/07/23 07:49:19;;;;;;;9.02;5.72;;;19.40;99.90;;;;;;5015915;28;20400;-84
2022/07/23 07:51:45;;;;;;;9.30;6.03;;;19.90;99.90;;;;;;4997186;28;20403;-84
2022/07/23 07:54:13;;;;;;;6.60;4.90;;;20.20;99.90;;;;;;4994287;28;20975;-84
2022/07/23 07:56:39;;;;;;;6.35;5.32;;;20.60;99.90;;;;;;5011886;28;20434;-84
2022/07/23 07:59:05;;;;;;;7.67;4.70;;;20.90;99.90;;;;;;4995004;28;20387;-85
2022/07/23 08:01:31;;;;;;;7.32;4.50;;;;;;;;;;4995213;28;20403;-84
2022/07/23 08:03:57;;;;;;;6.68;4.22;;;21.10;99.90;;;;;;4996638;28;20895;-84
2022/07/23 08:06:23;;;;;;;5.38;4.18;;;21.00;99.90;;;;;;4997594;28;20379;-82
2022/07/23 08:08:48;;;;;;;5.68;4.00;;;21.20;99.90;;;;;;5012059;28;20482;-83
2022/07/23 08:11:14;;;;;;;7.27;4.30;;;21.40;99.90;;;;;;5011425;28;20410;-82
2022/07/23 08:13:40;;;;;;;6.70;3.85;;;;;;;;;;5027001;28;20435;-81
2022/07/23 08:16:07;;;;;;;5.90;3.75;;;;;;;;;;5028396;28;20434;-81
2022/07/23 08:18:33;;;;;;;6.18;3.72;;;;;;;;;;5020939;28;20798;-82
2022/07/23 08:21:06;;;;;;;6.82;3.70;;;;;;;;;;5016871;28;20480;-82
2022/07/23 08:23:32;;;;;;;5.10;3.60;;;20.90;99.90;;;;;;5001098;28;20663;-83
2022/07/23 08:25:59;;;;;;;8.32;4.03;;;20.90;99.90;;;;;;5013768;28;20507;-81
2022/07/23 08:28:25;;;;;;;6.65;3.92;;;21.10;99.90;;;;;;5014714;28;20390;-82
2022/07/23 08:30:51;;;;;;;5.18;3.33;;;21.10;99.90;;;;;;5015983;28;20379;-81
2022/07/23 08:33:17;;;;;;;6.63;4.00;;;21.00;99.90;;;;;;5017273;28;20384;-82
2022/07/23 08:35:46;;;;;;;6.25;4.10;;;20.80;99.90;;;;;;5015612;28;20378;-83
2022/07/23 08:38:13;;;;;;;8.30;3.83;;;20.80;99.90;;;;;;5020357;28;20396;-84
2022/07/23 08:40:42;;;;;;;6.20;3.40;;;21.00;99.90;;;;;;5014245;28;20402;-83
2022/07/23 08:43:11;;;;;;;6.65;3.33;;;21.10;99.90;;;;;;5014477;28;20409;-82
2022/07/23 08:45:39;;;;;;;5.10;3.33;;;21.10;99.90;;;;;;5014006;28;20706;-86
2022/07/23 08:48:08;;;;;;;6.18;4.03;;;21.30;99.90;;;;;;5031648;28;20401;-87
2022/07/23 08:50:38;;;;;;;5.93;3.88;;;21.30;99.90;;;;;;5014153;28;20792;-85
2022/07/23 08:53:07;;;;;;;7.80;3.60;;;21.30;99.90;;;;;;5012793;28;20382;-85
2022/07/23 08:55:35;;;;;;;6.73;3.50;;;21.40;99.90;;;;;;5030255;28;20461;-86
2022/07/23 08:58:01;;;;;;;6.53;3.90;;;21.60;99.90;;;;;;5030848;28;20398;-86
2022/07/23 09:00:27;;;;;;;7.40;4.50;;;21.60;99.90;;;;;;5012942;28;20417;-83
2022/07/23 09:02:53;;;;;;;6.47;3.88;;;21.60;99.90;;;;;;5030774;28;20887;-86
2022/07/23 09:05:20;;;;;;;5.72;3.80;;;21.70;99.90;;;;;;5030976;28;20476;-89
2022/07/23 09:08:21;;;;;;;5.95;3.38;;;22.00;99.90;;;;;;5031154;28;20389;-87
2022/07/23 09:11:01;;;;;;;4.70;3.05;;;21.90;99.90;;;;;;5027754;28;20526;-84
2022/07/23 09:13:32;;;;;;;5.10;3.25;;;22.00;99.90;;;;;;4993851;28;20424;-84
2022/07/23 09:16:04;;;;;;;6.67;3.60;;;22.00;99.90;;;;;;5012076;28;20384;-86
2022/07/23 09:18:51;;;;;;;5.43;3.08;;;21.60;99.90;;;;;;4997877;28;20387;-86
2022/07/23 09:21:21;;;;;;;6.65;3.15;;;21.70;99.90;;;;;;5002625;28;20377;-88
2022/07/23 09:23:50;;;;;;;6.20;3.78;;;22.00;99.90;;;;;;5013660;28;20403;-81
2022/07/23 09:26:29;;;;;;;5.80;3.83;;;22.10;99.90;;;;;;4992837;28;20439;-86
2022/07/23 09:29:15;;;;;;;5.38;4.18;;;21.90;99.90;;;;;;5011984;28;20379;-87
2022/07/23 09:32:05;;;;;;;6.68;3.45;;;21.90;99.90;;;;;;5010694;28;20406;-85
2022/07/23 09:34:33;;;;;;;6.72;3.55;;;22.20;99.90;;;;;;4997270;28;21145;-87
2022/07/23 09:37:19;;;;;;;7.05;3.78;;;22.60;99.90;;;;;;4994094;28;20376;-88
2022/07/23 09:39:47;;;;;;;5.82;3.38;;;22.70;99.90;;;;;;4993920;28;20433;-86
2022/07/23 09:42:21;;;;;;;6.57;3.28;;;23.00;99.90;;;;;;5000169;28;20447;-86
2022/07/23 09:44:57;;;;;;;5.47;3.20;;;22.80;99.90;;;;;;5013917;28;20378;-82
2022/07/23 09:47:25;;;;;;;6.22;3.42;;;22.60;99.90;;;;;;5031171;28;20433;-83
2022/07/23 09:50:08;;;;;;;6.53;3.42;;;22.70;99.90;;;;;;5026260;28;20884;-85
2022/07/23 09:52:36;;;;;;;5.87;3.77;;;22.80;99.90;;;;;;5016689;28;20395;-85
2022/07/23 09:55:06;;;;;;;7.22;4.07;;;23.10;99.90;;;;;;5030943;28;20393;-87
2022/07/23 09:57:33;;;;;;;5.80;3.40;;;22.90;99.90;;;;;;5012140;28;20413;-86
2022/07/23 10:00:03;;;;;;;7.40;3.50;;;22.90;99.90;;;;;;5031207;28;20878;-87
2022/07/23 10:02:30;;;;;;;7.53;4.30;;;22.70;99.90;;;;;;5029884;28;20401;-87
2022/07/23 10:04:56;;;;;;;6.00;4.25;;;22.70;99.90;;;;;;5012255;28;20396;-85
2022/07/23 10:07:23;;;;;;;6.63;4.10;;;23.00;99.90;;;;;;5013150;28;20406;-86
2022/07/23 10:09:52;;;;;;;5.93;3.80;;;23.20;99.90;;;;;;5019838;28;20389;-86
2022/07/23 10:14:48;;;;;;;7.63;3.80;;;23.00;99.90;;;;;;5018834;28;20403;-85
2022/07/23 10:17:14;;;;;;;6.63;4.00;;;23.10;99.90;;;;;;5004760;28;20385;-86
2022/07/23 10:19:40;;;;;;;6.22;3.58;;;23.00;99.90;;;;;;5012472;28;20405;-84
2022/07/23 10:22:12;;;;;;;6.55;3.50;;;22.90;99.90;;;;;;4994377;28;20411;-85
2022/07/23 10:25:03;;;;;;;5.93;3.75;;;22.60;99.90;;;;;;4992978;28;20492;-86
2022/07/23 10:27:56;;;;;;;5.47;3.92;;;22.50;99.90;;;;;;5010884;28;20387;-84
2022/07/23 10:30:45;;;;;;;7.27;3.80;;;22.30;99.90;;;;;;4996555;28;20383;-84
2022/07/23 10:33:32;;;;;;;5.95;3.75;;;22.60;99.90;;;;;;5010169;28;20411;-84
2022/07/23 10:36:15;;;;;;;6.53;4.00;;;22.60;99.90;;;;;;5021013;28;20474;-84
2022/07/23 10:39:07;;;;;;;6.80;3.83;;;22.70;99.90;;;;;;4992705;28;20391;-86
2022/07/23 10:41:41;;;;;;;5.90;4.00;;;22.90;99.90;;;;;;4992127;28;20884;-84
2022/07/23 10:44:11;;;;;;;5.20;3.70;;;23.30;99.90;;;;;;4993825;28;20395;-85
2022/07/23 10:47:02;;;;;;;6.22;3.60;;;23.50;99.90;;;;;;4992869;28;20479;-87
2022/07/23 10:49:30;;;;;;;7.63;3.80;;;23.90;99.90;;;;;;5018346;28;20901;-85
2022/07/23 10:52:23;;;;;;;6.57;3.35;;;23.80;99.90;;;;;;4999425;28;20896;-87
2022/07/23 10:55:09;;;;;;;6.72;3.78;;;24.20;99.90;;;;;;5012821;28;20458;-83
2022/07/23 10:57:50;;;;;;;6.13;3.92;;;24.60;99.90;;;;;;4978550;28;20401;-85
2022/07/23 11:00:26;;;;;;;8.32;4.03;;;24.50;99.90;;;;;;5018496;28;20777;-87
2022/07/23 11:02:55;;;;;;;6.75;3.38;;;24.30;99.90;;;;;;4997231;28;20427;-86
2022/07/23 11:05:26;;;;;;;5.60;3.20;;;24.40;99.90;;;;;;5004764;28;20394;-87
2022/07/23 11:08:04;;;;;;;6.80;3.40;;;24.50;99.90;;;;;;5005737;28;20415;-85
2022/07/23 11:10:35;;;;;;;8.32;3.80;;;24.50;99.90;;;;;;5021708;28;20384;-87
2022/07/23 11:13:35;;;;;;;4.63;2.90;;;24.60;99.90;;;;;;5004666;28;20410;-84
2022/07/23 11:16:01;;;;;;;3.45;2.90;;;24.80;99.90;;;;;;5005701;28;20384;-85
2022/07/23 11:18:39;;;;;;;5.27;3.07;;;24.90;99.90;;;;;;5004707;28;20390;-86
2022/07/23 11:21:23;;;;;;;4.97;2.78;;;24.90;99.90;;;;;;5005152;28;20461;-87
2022/07/23 11:24:07;;;;;;;4.65;2.75;;;24.80;99.90;;;;;;5022539;28;20414;-85
2022/07/23 11:26:44;;;;;;;4.53;3.05;;;24.80;99.90;;;;;;5003954;28;20401;-85
2022/07/23 11:29:27;;;;;;;4.88;2.83;;;25.10;99.90;;;;;;5009228;28;20397;-86
2022/07/23 11:32:08;;;;;;;4.10;2.65;;;25.50;99.90;;;;;;5003536;28;20389;-85
2022/07/23 11:34:34;;;;;;;6.68;2.90;;;25.50;99.90;;;;;;5004085;28;20382;-85
2022/07/23 11:37:03;;;;;;;6.43;3.05;;;25.80;99.90;;;;;;5006024;28;20389;-85
2022/07/23 11:39:30;;;;;;;4.70;3.15;;;25.60;99.90;;;;;;5004298;28;20379;-87
2022/07/23 11:41:57;;;;;;;5.57;3.22;;;25.20;99.20;;;;;;5007236;28;20512;-86
2022/07/23 11:44:31;;;;;;;4.03;2.47;;;25.20;99.90;;;;;;5022321;28;20391;-85
2022/07/23 11:47:04;;;;;;;4.88;3.03;;;25.20;99.90;;;;;;5001098;28;20392;-85
2022/07/23 11:49:29;;;;;;;4.53;2.55;;;25.20;99.70;;;;;;5020825;28;20470;-85
2022/07/23 11:52:12;;;;;;;6.13;3.00;;;25.00;99.90;;;;;;5022031;28;20806;-86
2022/07/23 11:55:06;;;;;;;5.07;2.95;;;25.10;99.90;;;;;;5022837;28;20389;-86
2022/07/23 11:57:34;;;;;;;5.75;3.05;;;25.30;99.90;;;;;;5001656;28;20405;-86
2022/07/23 12:00:10;;;;;;;6.03;2.83;;;25.40;99.90;;;;;;5003592;28;20377;-85
2022/07/23 12:02:37;;;;;;;4.68;2.50;;;25.40;99.90;;;;;;4996600;28;20439;-87
2022/07/23 12:05:04;;;;;;;5.20;2.90;;;25.40;99.90;;;;;;5003613;28;20381;-87
2022/07/23 12:07:38;;;;;;;5.72;2.80;;;25.40;99.60;;;;;;5008963;28;20472;-86
2022/07/23 12:10:09;;;;;;;5.18;2.80;;;25.20;99.90;;;;;;5000619;28;20407;-87
2022/07/23 12:12:39;;;;;;;6.22;2.78;;;24.90;99.90;;;;;;5003155;28;20416;-86
2022/07/23 12:15:05;;;;;;;6.68;2.80;;;24.80;99.90;;;;;;5001166;28;20388;-85
2022/07/23 12:17:34;;;;;;;4.22;2.47;;;24.70;99.80;;;;;;5020087;28;20774;-85
2022/07/23 12:20:03;;;;;;;5.03;2.40;;;24.60;99.50;;;;;;5001985;28;20396;-85
2022/07/23 12:22:38;;;;;;;8.48;3.13;;;24.70;99.90;;;;;;5020209;28;20406;-86
2022/07/23 12:25:14;;;;;;;4.55;2.50;;;24.80;99.90;;;;;;5002848;28;20390;-85
2022/07/23 12:27:41;;;;;;;3.45;2.47;;;25.10;99.90;;;;;;5002882;28;20436;-86
2022/07/23 12:30:27;;;;;;;3.10;2.40;;;25.20;99.90;;;;;;5020405;28;20383;-85
2022/07/23 12:32:55;;;;;;;3.23;2.37;;;25.10;99.50;;;;;;5002624;28;20380;-84
2022/07/23 12:35:27;;;;;;;5.28;2.72;;;24.90;99.50;;;;;;5002103;28;20375;-84
2022/07/23 12:38:01;;;;;;;6.65;2.50;;;24.80;99.90;;;;;;5002740;28;20393;-86
2022/07/23 12:40:37;;;;;;;3.97;2.30;;;24.90;99.10;;;;;;4996645;28;20396;-88
2022/07/23 12:43:07;;;;;;;4.13;2.40;;;24.70;98.30;;;;;;5016894;28;20410;-87
2022/07/23 12:45:46;;;;;;;4.20;2.50;;;24.50;98.60;;;;;;5018491;28;20415;-88
2022/07/23 12:48:20;;;;;;;4.50;2.65;;;24.40;99.50;;;;;;5019293;28;20382;-86
2022/07/23 12:50:54;;;;;;;6.00;2.50;;;24.20;99.90;;;;;;5023483;28;20392;-88
2022/07/23 12:53:24;;;;;;;5.72;2.60;;;24.60;99.90;;;;;;5013077;28;20386;-86
2022/07/23 12:56:00;;;;;;;3.85;2.10;;;24.90;99.50;;;;;;5029029;28;20390;-85
2022/07/23 12:58:25;;;;;;;7.30;2.58;;;24.90;98.80;;;;;;5025520;28;20403;-86